Hauptseite
METAR-TAF:

METAR-TAF

Flughäfen :

RAF Odiham

Odiham, England

Breite: 51-14N, Länge: 000-57W, Höhe: 123 m

Beobachtung

Neuester Wetterbericht von vor 49 Minuten, um 04:50 UTC
Wind 3 kt aus Südwest
Temperatur 1°C
Luftfeuchtigkeit 100%
Luftdruck 1008 hPa
Sichtweite: 4800 m
feuchter Dunst

METAR: EGVO 170450Z AUTO 23003KT 4800 BR OVC180/// 01/01 Q1008

Zeit: 05:39 (05:39 UTC)


TAF: fehlend

Wetterbeobachtungen und Prognosen von mehr als 4000 Flughäfen (METAR und TAF Bericht).

Die verfügbaren Stationen werden durch gelbe und rote Markierungen auf der Karte dargestellt.

Führen Sie die Maus auf sie, um den Namen der Station zu sehen.

Darauf klicken, um die Beobachtung von Wetterbeobachtungen und Prognosen zu sehen.

Um die Karte zu ändern : klicken Sie auf den grünen Tasten mit einem schwarzen Kreuz Zum Vergrößern, auf den grünen Button mit einem Gedankenstrich zu verkleinern, oder auf die grünen Pfeile für benachbarte Karten.


METAR-TAF: